METAR EPSY 030330Z 22006KT CAVOK 10/09 Q1012=